createdAt,value
2022-12-31T00:01:48.417Z,15.77
2022-12-31T00:04:16.412Z,17.10
2022-12-31T00:06:44.337Z,15.98
2022-12-31T00:09:11.919Z,12.77
2022-12-31T00:11:39.923Z,14.18
2022-12-31T00:14:07.782Z,15.70
2022-12-31T00:16:38.360Z,14.05
2022-12-31T00:19:08.333Z,13.57
2022-12-31T00:21:36.984Z,14.52
2022-12-31T00:24:05.491Z,17.87
2022-12-31T00:26:34.819Z,15.60
2022-12-31T00:29:03.136Z,13.98
2022-12-31T00:31:33.576Z,13.10
2022-12-31T00:34:02.188Z,13.82
2022-12-31T00:36:35.483Z,13.98
2022-12-31T00:39:05.632Z,13.90
2022-12-31T00:41:33.475Z,13.40
2022-12-31T00:44:01.093Z,14.50
2022-12-31T00:46:29.037Z,14.60
2022-12-31T00:48:56.665Z,14.65
2022-12-31T00:51:27.297Z,11.97
2022-12-31T00:53:58.473Z,14.32
2022-12-31T00:56:28.443Z,13.80
2022-12-31T00:58:56.546Z,12.85
2022-12-31T01:01:36.037Z,13.57
2022-12-31T01:04:09.826Z,12.77
2022-12-31T01:06:38.244Z,12.90
2022-12-31T01:09:07.204Z,12.32
2022-12-31T01:11:35.119Z,12.65
2022-12-31T01:14:17.490Z,12.70
2022-12-31T01:16:47.832Z,11.57
2022-12-31T01:19:23.690Z,12.55
2022-12-31T01:21:52.052Z,12.93
2022-12-31T01:24:20.456Z,11.98
2022-12-31T01:26:51.381Z,12.73
2022-12-31T01:29:19.388Z,12.60
2022-12-31T01:31:47.026Z,13.05
2022-12-31T01:34:14.639Z,13.25
2022-12-31T01:36:42.410Z,12.40
2022-12-31T01:39:11.275Z,13.02
2022-12-31T01:41:42.206Z,12.13
2022-12-31T01:44:12.893Z,12.18
2022-12-31T01:47:01.315Z,11.40
2022-12-31T01:49:38.228Z,10.30
2022-12-31T01:52:18.003Z,10.38
2022-12-31T01:55:24.208Z,9.43
2022-12-31T01:57:56.226Z,10.35
2022-12-31T02:00:24.444Z,11.40
2022-12-31T02:02:52.845Z,11.93
2022-12-31T02:05:27.669Z,12.00
2022-12-31T02:07:56.347Z,13.33
2022-12-31T02:10:23.835Z,11.82
2022-12-31T02:12:52.128Z,10.43
2022-12-31T02:15:23.221Z,10.13
2022-12-31T02:18:01.417Z,10.45
2022-12-31T02:20:32.305Z,12.93
2022-12-31T02:23:18.610Z,12.85
2022-12-31T02:25:52.311Z,12.37
2022-12-31T02:28:41.843Z,12.10
2022-12-31T02:31:17.049Z,9.57
2022-12-31T02:34:13.200Z,10.10
2022-12-31T02:36:44.561Z,10.50
2022-12-31T02:39:12.695Z,9.65
2022-12-31T02:41:52.283Z,10.45
2022-12-31T02:44:31.201Z,10.63
2022-12-31T02:47:17.282Z,10.17
2022-12-31T02:49:48.000Z,10.55
2022-12-31T02:52:44.754Z,8.70
2022-12-31T02:55:24.640Z,10.73
2022-12-31T02:58:22.701Z,10.50
2022-12-31T03:01:12.986Z,10.20
2022-12-31T03:03:41.039Z,10.13
2022-12-31T03:06:09.677Z,10.63
2022-12-31T03:08:57.274Z,10.93
2022-12-31T03:11:45.402Z,11.32
2022-12-31T03:14:13.011Z,9.83
2022-12-31T03:16:40.922Z,10.23
2022-12-31T03:19:26.858Z,10.85
2022-12-31T03:22:13.371Z,9.95
2022-12-31T03:24:59.329Z,9.80
2022-12-31T03:27:27.164Z,9.83
2022-12-31T03:29:54.748Z,9.90
2022-12-31T03:32:23.258Z,10.73
2022-12-31T03:34:51.087Z,9.75
2022-12-31T03:37:18.600Z,10.18
2022-12-31T03:39:46.318Z,9.80
2022-12-31T03:42:14.401Z,9.25
2022-12-31T03:44:41.933Z,10.07
2022-12-31T03:47:09.392Z,9.02
2022-12-31T03:49:37.172Z,9.82
2022-12-31T03:52:06.431Z,10.33
2022-12-31T03:54:33.980Z,9.57
2022-12-31T03:57:01.779Z,9.57
2022-12-31T03:59:29.348Z,10.05
2022-12-31T04:01:57.019Z,9.40
2022-12-31T04:04:24.897Z,9.00
2022-12-31T04:06:52.435Z,9.85
2022-12-31T04:09:20.243Z,9.00
2022-12-31T04:11:48.122Z,8.77
2022-12-31T04:14:17.196Z,11.77
2022-12-31T04:16:45.487Z,8.73
2022-12-31T04:19:13.578Z,9.35
2022-12-31T04:21:41.159Z,9.77
2022-12-31T04:24:08.784Z,8.52
2022-12-31T04:26:37.179Z,9.70
2022-12-31T04:29:05.300Z,8.53
2022-12-31T04:31:33.001Z,7.85
2022-12-31T04:34:00.777Z,8.88
2022-12-31T04:36:28.402Z,8.40
2022-12-31T04:38:56.291Z,8.57
2022-12-31T04:41:27.054Z,8.70
2022-12-31T04:43:58.572Z,8.68
2022-12-31T04:46:29.617Z,8.77
2022-12-31T04:48:58.101Z,8.30
2022-12-31T04:51:27.820Z,8.73
2022-12-31T04:53:55.436Z,8.93
2022-12-31T04:56:23.325Z,8.65
2022-12-31T04:58:51.891Z,8.82
2022-12-31T05:01:20.001Z,8.60
2022-12-31T05:03:47.797Z,8.55
2022-12-31T05:06:18.061Z,7.77
2022-12-31T05:08:46.562Z,9.20
2022-12-31T05:11:14.615Z,8.02
2022-12-31T05:13:42.883Z,7.97
2022-12-31T05:16:10.710Z,7.70
2022-12-31T05:18:38.585Z,8.47
2022-12-31T05:21:06.751Z,8.35
2022-12-31T05:23:34.576Z,7.85
2022-12-31T05:26:02.215Z,7.43
2022-12-31T05:28:30.134Z,6.82
2022-12-31T05:30:57.688Z,6.47
2022-12-31T05:33:25.302Z,7.00
2022-12-31T05:35:53.183Z,6.85
2022-12-31T05:38:22.446Z,7.40
2022-12-31T05:40:50.029Z,7.30
2022-12-31T05:43:17.779Z,6.97
2022-12-31T05:45:45.339Z,7.30
2022-12-31T05:48:12.920Z,7.47
2022-12-31T05:50:40.731Z,7.50
2022-12-31T05:53:08.973Z,7.95
2022-12-31T05:55:36.549Z,7.60
2022-12-31T05:58:04.781Z,8.45
2022-12-31T06:00:32.464Z,7.75
2022-12-31T06:03:00.432Z,8.10
2022-12-31T06:05:28.091Z,7.95
2022-12-31T06:07:55.747Z,8.60
2022-12-31T06:10:23.621Z,7.97
2022-12-31T06:12:51.181Z,8.35
2022-12-31T06:15:18.777Z,8.50
2022-12-31T06:17:46.605Z,7.80
2022-12-31T06:20:14.121Z,8.03
2022-12-31T06:22:41.569Z,8.10
2022-12-31T06:25:09.807Z,8.35
2022-12-31T06:27:37.320Z,8.50
2022-12-31T06:30:05.604Z,8.50
2022-12-31T06:32:34.960Z,8.13
2022-12-31T06:35:03.602Z,8.27
2022-12-31T06:37:31.121Z,8.30
2022-12-31T06:40:00.668Z,7.45
2022-12-31T06:42:30.888Z,8.18
2022-12-31T06:44:59.104Z,8.00
2022-12-31T06:47:26.790Z,7.75
2022-12-31T06:49:54.362Z,8.65
2022-12-31T06:52:22.321Z,7.87
2022-12-31T06:54:50.165Z,8.10
2022-12-31T06:57:17.992Z,6.90
2022-12-31T06:59:46.272Z,7.97
2022-12-31T07:02:38.786Z,8.48
2022-12-31T07:05:40.960Z,8.32
2022-12-31T07:08:20.551Z,10.20
2022-12-31T07:11:02.481Z,9.50
2022-12-31T07:13:45.367Z,11.12
2022-12-31T07:16:28.316Z,11.12
2022-12-31T07:19:07.032Z,11.38
2022-12-31T07:21:39.924Z,12.30
2022-12-31T07:24:09.323Z,12.20
2022-12-31T07:26:56.544Z,11.70
2022-12-31T07:30:03.742Z,12.63
2022-12-31T07:33:02.578Z,11.90
2022-12-31T07:35:45.524Z,13.23
2022-12-31T07:38:42.860Z,15.37
2022-12-31T07:41:17.929Z,15.43
2022-12-31T07:43:56.181Z,13.93
2022-12-31T07:46:42.564Z,14.35
2022-12-31T07:49:14.306Z,13.80
2022-12-31T07:51:42.103Z,15.70
2022-12-31T07:54:13.908Z,14.60
2022-12-31T07:56:42.640Z,15.48
2022-12-31T07:59:31.919Z,21.42
2022-12-31T08:02:37.877Z,15.70
2022-12-31T08:05:13.955Z,13.83
2022-12-31T08:07:50.685Z,15.20
2022-12-31T08:10:34.264Z,16.85
2022-12-31T08:13:04.406Z,17.27
2022-12-31T08:15:32.392Z,17.83
2022-12-31T08:18:00.192Z,18.30
2022-12-31T08:20:29.769Z,17.42
2022-12-31T08:23:22.378Z,16.27
2022-12-31T08:26:02.080Z,15.75
2022-12-31T08:28:39.201Z,16.75
2022-12-31T08:31:22.970Z,16.87
2022-12-31T08:34:09.163Z,17.23
2022-12-31T08:36:56.913Z,18.67
2022-12-31T08:39:36.869Z,17.55
2022-12-31T08:42:14.133Z,17.37
2022-12-31T08:44:51.747Z,16.30
2022-12-31T08:47:59.874Z,17.05
2022-12-31T08:50:29.944Z,17.37
2022-12-31T08:52:58.412Z,17.35
2022-12-31T08:55:26.461Z,18.05
2022-12-31T08:58:21.006Z,17.97
2022-12-31T09:00:50.408Z,17.30
2022-12-31T09:03:33.511Z,19.80
2022-12-31T09:06:16.989Z,19.65
2022-12-31T09:09:05.025Z,17.45
2022-12-31T09:11:57.733Z,16.87
2022-12-31T09:14:42.921Z,18.98
2022-12-31T09:17:13.045Z,19.95
2022-12-31T09:19:40.917Z,21.23
2022-12-31T09:22:10.821Z,21.60
2022-12-31T09:24:38.704Z,20.70
2022-12-31T09:27:40.809Z,20.75
2022-12-31T09:30:13.569Z,21.52
2022-12-31T09:32:58.586Z,21.17
2022-12-31T09:35:53.231Z,19.62
2022-12-31T09:38:55.264Z,20.47
2022-12-31T09:41:35.065Z,20.05
2022-12-31T09:44:41.697Z,19.33
2022-12-31T09:47:34.434Z,19.75
2022-12-31T09:50:04.733Z,19.05
2022-12-31T09:52:51.795Z,19.63
2022-12-31T09:55:38.511Z,17.73
2022-12-31T09:58:24.875Z,18.15
2022-12-31T10:01:11.519Z,18.33
2022-12-31T10:04:10.116Z,25.73
2022-12-31T10:06:46.248Z,21.53
2022-12-31T10:09:59.580Z,23.87
2022-12-31T10:12:55.283Z,50.45
2022-12-31T10:15:38.334Z,30.10
2022-12-31T10:18:27.709Z,27.70
2022-12-31T10:21:33.361Z,22.97
2022-12-31T10:24:22.135Z,20.77
2022-12-31T10:27:09.094Z,20.62
2022-12-31T10:29:59.289Z,18.85
2022-12-31T10:32:49.094Z,17.58
2022-12-31T10:35:31.888Z,16.57
2022-12-31T10:38:41.685Z,16.60
2022-12-31T10:41:43.448Z,15.63
2022-12-31T10:44:29.441Z,17.30
2022-12-31T10:47:15.687Z,18.52
2022-12-31T10:49:59.694Z,16.47
2022-12-31T10:53:15.672Z,15.15
2022-12-31T10:55:55.402Z,14.18
2022-12-31T10:59:01.217Z,14.23
2022-12-31T11:01:36.764Z,15.20
2022-12-31T11:04:23.294Z,12.60
2022-12-31T11:07:14.838Z,11.93
2022-12-31T11:09:48.700Z,12.27
2022-12-31T11:12:45.826Z,12.37
2022-12-31T11:15:16.626Z,10.70
2022-12-31T11:17:59.641Z,10.97
2022-12-31T11:20:48.609Z,11.20
2022-12-31T11:23:21.081Z,10.57
2022-12-31T11:26:07.386Z,10.85
2022-12-31T11:29:08.572Z,11.10
2022-12-31T11:31:36.544Z,11.37
2022-12-31T11:34:13.446Z,12.13
2022-12-31T11:37:08.975Z,11.73
2022-12-31T11:39:45.160Z,10.63
2022-12-31T11:42:37.428Z,11.35
2022-12-31T11:45:13.751Z,11.43
2022-12-31T11:48:20.626Z,10.38
2022-12-31T11:50:58.851Z,11.20
2022-12-31T11:53:41.857Z,11.30
2022-12-31T11:56:20.899Z,11.38
2022-12-31T11:58:50.052Z,10.83
2022-12-31T12:01:22.801Z,11.02
2022-12-31T12:03:50.755Z,11.60
2022-12-31T12:06:23.230Z,12.13
2022-12-31T12:08:51.210Z,12.57
2022-12-31T12:11:23.989Z,12.67
2022-12-31T12:13:52.156Z,12.90
2022-12-31T12:16:21.707Z,11.57
2022-12-31T12:19:06.928Z,12.20
2022-12-31T12:21:34.936Z,13.05
2022-12-31T12:24:17.150Z,11.93
2022-12-31T12:26:45.522Z,13.40
2022-12-31T12:29:21.653Z,12.52
2022-12-31T12:32:02.053Z,11.80
2022-12-31T12:34:32.562Z,11.27
2022-12-31T12:37:00.554Z,11.27
2022-12-31T12:39:33.236Z,12.77
2022-12-31T12:42:07.086Z,13.90
2022-12-31T12:44:35.907Z,12.05
2022-12-31T12:47:05.826Z,11.65
2022-12-31T12:49:41.482Z,12.70
2022-12-31T12:52:28.035Z,13.38
2022-12-31T12:55:05.610Z,12.40
2022-12-31T12:57:39.700Z,13.15
2022-12-31T13:00:16.992Z,12.80
2022-12-31T13:03:06.446Z,13.33
2022-12-31T13:05:58.499Z,11.23
2022-12-31T13:08:35.984Z,10.65
2022-12-31T13:11:21.840Z,12.23
2022-12-31T13:14:12.230Z,12.10
2022-12-31T13:16:45.623Z,11.73
2022-12-31T13:19:30.949Z,12.80
2022-12-31T13:22:01.452Z,12.07
2022-12-31T13:25:00.306Z,10.75
2022-12-31T13:27:34.696Z,10.98
2022-12-31T13:30:09.332Z,10.43
2022-12-31T13:33:01.529Z,10.90
2022-12-31T13:35:30.082Z,10.65
2022-12-31T13:38:06.887Z,11.05
2022-12-31T13:40:56.821Z,10.98
2022-12-31T13:43:38.040Z,13.83
2022-12-31T13:46:47.225Z,11.80
2022-12-31T13:49:31.570Z,12.13
2022-12-31T13:52:07.388Z,11.77
2022-12-31T13:54:41.585Z,11.52
2022-12-31T13:57:18.578Z,10.53
2022-12-31T13:59:49.986Z,10.20
2022-12-31T14:02:30.221Z,10.48
2022-12-31T14:05:05.537Z,10.90
2022-12-31T14:07:43.452Z,9.85
2022-12-31T14:10:15.514Z,9.50
2022-12-31T14:12:49.014Z,9.68
2022-12-31T14:15:33.597Z,8.95
2022-12-31T14:18:19.342Z,9.82
2022-12-31T14:20:54.204Z,8.55
2022-12-31T14:23:42.145Z,9.83
2022-12-31T14:26:13.295Z,11.07
2022-12-31T14:29:24.486Z,9.30
2022-12-31T14:32:22.316Z,8.52
2022-12-31T14:34:53.243Z,9.27
2022-12-31T14:37:21.000Z,9.93
2022-12-31T14:39:58.714Z,9.35
2022-12-31T14:43:05.346Z,10.50
2022-12-31T14:45:47.138Z,9.15
2022-12-31T14:48:22.267Z,9.98
2022-12-31T14:50:50.246Z,10.03
2022-12-31T14:53:26.055Z,9.15
2022-12-31T14:56:24.712Z,10.30
2022-12-31T14:58:57.968Z,9.57
2022-12-31T15:01:26.456Z,8.85
2022-12-31T15:03:57.911Z,9.33
2022-12-31T15:06:54.961Z,9.57
2022-12-31T15:09:34.892Z,9.07
2022-12-31T15:12:24.089Z,11.68
2022-12-31T15:15:09.475Z,10.02
2022-12-31T15:17:54.076Z,10.60
2022-12-31T15:20:36.881Z,12.70
2022-12-31T15:23:13.481Z,10.40
2022-12-31T15:25:47.455Z,8.50
2022-12-31T15:28:44.729Z,8.88
2022-12-31T15:31:20.456Z,9.43
2022-12-31T15:33:57.231Z,8.93
2022-12-31T15:36:36.009Z,7.82
2022-12-31T15:39:25.540Z,9.18
2022-12-31T15:44:41.618Z,7.80
2022-12-31T15:47:16.397Z,8.32
2022-12-31T15:49:45.972Z,8.10
2022-12-31T15:52:18.278Z,7.97
2022-12-31T15:54:50.290Z,9.32
2022-12-31T15:57:30.144Z,7.77
2022-12-31T15:59:59.755Z,8.13
2022-12-31T16:02:28.246Z,9.10
2022-12-31T16:04:56.533Z,7.80
2022-12-31T16:07:24.634Z,9.15
2022-12-31T16:09:57.532Z,9.80
2022-12-31T16:12:44.434Z,9.15
2022-12-31T16:15:21.994Z,9.48
2022-12-31T16:18:02.843Z,8.18
2022-12-31T16:20:32.153Z,8.68
2022-12-31T16:23:02.594Z,8.90
2022-12-31T16:25:33.164Z,8.75
2022-12-31T16:28:02.341Z,8.43
2022-12-31T16:30:36.420Z,8.93
2022-12-31T16:33:06.205Z,8.40
2022-12-31T16:35:39.045Z,8.00
2022-12-31T16:38:16.437Z,8.88
2022-12-31T16:41:03.673Z,8.55
2022-12-31T16:43:39.673Z,8.57
2022-12-31T16:46:16.796Z,8.80
2022-12-31T16:49:14.451Z,8.93
2022-12-31T16:51:42.190Z,8.63
2022-12-31T16:54:31.303Z,8.68
2022-12-31T16:56:59.257Z,9.57
2022-12-31T16:59:53.158Z,9.13
2022-12-31T17:02:25.948Z,9.83
2022-12-31T17:04:56.270Z,9.20
2022-12-31T17:07:30.077Z,8.40
2022-12-31T17:10:07.010Z,8.95
2022-12-31T17:13:17.091Z,8.48
2022-12-31T17:15:43.008Z,8.80
2022-12-31T17:18:25.814Z,8.40
2022-12-31T17:20:55.206Z,8.95
2022-12-31T17:23:28.735Z,9.23
2022-12-31T17:26:01.641Z,9.10
2022-12-31T17:28:33.109Z,8.93
2022-12-31T17:31:26.577Z,9.50
2022-12-31T17:33:55.255Z,8.85
2022-12-31T17:36:23.841Z,8.00
2022-12-31T17:38:51.432Z,9.40
2022-12-31T17:41:25.231Z,8.27
2022-12-31T17:43:56.990Z,8.15
2022-12-31T17:46:25.254Z,8.18
2022-12-31T17:49:02.413Z,7.40
2022-12-31T17:51:30.263Z,7.60
2022-12-31T17:54:00.349Z,8.50
2022-12-31T17:56:27.860Z,8.48
2022-12-31T17:58:55.878Z,7.45
2022-12-31T18:01:24.204Z,10.20
2022-12-31T18:03:52.177Z,7.50
2022-12-31T18:06:20.034Z,7.23
2022-12-31T18:08:48.043Z,7.07
2022-12-31T18:11:20.309Z,7.75
2022-12-31T18:13:48.451Z,7.35
2022-12-31T18:16:16.611Z,8.63
2022-12-31T18:18:45.353Z,7.17
2022-12-31T18:21:32.514Z,9.70
2022-12-31T18:26:30.439Z,7.07
2022-12-31T18:29:00.151Z,8.55
2022-12-31T18:31:29.264Z,10.13
2022-12-31T18:33:58.698Z,8.10
2022-12-31T18:36:27.008Z,7.78
2022-12-31T18:38:54.902Z,6.43
2022-12-31T18:41:24.532Z,5.87
2022-12-31T18:43:52.098Z,5.47
2022-12-31T18:46:22.436Z,6.05
2022-12-31T18:48:49.983Z,6.10
2022-12-31T18:51:29.345Z,6.32
2022-12-31T18:54:01.113Z,5.22
2022-12-31T18:56:32.112Z,5.50
2022-12-31T18:59:02.446Z,6.43
2022-12-31T19:01:32.555Z,6.18
2022-12-31T19:04:12.569Z,5.90
2022-12-31T19:06:40.274Z,5.47
2022-12-31T19:09:23.739Z,5.50
2022-12-31T19:11:56.092Z,4.68
2022-12-31T19:14:24.863Z,5.22
2022-12-31T19:16:54.283Z,6.95
2022-12-31T19:19:21.892Z,6.43
2022-12-31T19:21:49.819Z,6.50
2022-12-31T19:24:24.496Z,5.97
2022-12-31T19:26:53.134Z,6.82
2022-12-31T19:29:23.076Z,6.60
2022-12-31T19:31:51.045Z,7.22
2022-12-31T19:34:19.165Z,7.63
2022-12-31T19:36:46.859Z,6.78
2022-12-31T19:39:17.155Z,7.25
2022-12-31T19:41:47.027Z,6.22
2022-12-31T19:44:18.107Z,5.93
2022-12-31T19:46:47.150Z,6.17
2022-12-31T19:49:14.881Z,7.12
2022-12-31T19:51:42.507Z,8.48
2022-12-31T19:54:12.560Z,10.05
2022-12-31T19:56:40.393Z,10.05
2022-12-31T19:59:09.957Z,9.83
2022-12-31T20:01:38.239Z,8.70
2022-12-31T20:04:06.186Z,7.72
2022-12-31T20:06:33.767Z,6.60
2022-12-31T20:09:02.809Z,7.30
2022-12-31T20:11:30.639Z,7.37
2022-12-31T20:13:58.416Z,9.75
2022-12-31T20:16:31.689Z,9.00
2022-12-31T20:18:59.897Z,7.03
2022-12-31T20:21:28.888Z,7.07
2022-12-31T20:23:57.761Z,7.13
2022-12-31T20:26:26.219Z,6.90
2022-12-31T20:28:53.874Z,7.07
2022-12-31T20:31:24.481Z,7.30
2022-12-31T20:33:56.960Z,6.78
2022-12-31T20:36:25.738Z,7.10
2022-12-31T20:38:53.760Z,7.25
2022-12-31T20:41:22.552Z,7.18
2022-12-31T20:43:50.664Z,7.57
2022-12-31T20:46:23.560Z,6.97
2022-12-31T20:48:53.474Z,6.93
2022-12-31T20:51:22.201Z,6.90
2022-12-31T20:53:57.754Z,6.40
2022-12-31T20:56:28.486Z,6.35
2022-12-31T20:58:56.605Z,7.00
2022-12-31T21:01:36.405Z,6.27
2022-12-31T21:04:14.510Z,6.55
2022-12-31T21:06:42.200Z,6.00
2022-12-31T21:09:10.169Z,6.10
2022-12-31T21:11:56.844Z,6.80
2022-12-31T21:14:24.446Z,5.87
2022-12-31T21:16:52.343Z,5.50
2022-12-31T21:19:20.083Z,6.87
2022-12-31T21:21:48.332Z,5.97
2022-12-31T21:24:21.768Z,6.05
2022-12-31T21:26:53.663Z,6.27
2022-12-31T21:29:21.591Z,6.03
2022-12-31T21:31:49.751Z,6.25
2022-12-31T21:34:17.370Z,6.03
2022-12-31T21:36:45.249Z,5.90
2022-12-31T21:39:12.876Z,5.47
2022-12-31T21:41:52.584Z,6.35
2022-12-31T21:44:24.851Z,5.12
2022-12-31T21:47:34.972Z,5.87
2022-12-31T21:50:07.513Z,5.85
2022-12-31T21:52:36.181Z,5.33
2022-12-31T21:55:23.853Z,5.60
2022-12-31T21:58:24.875Z,5.72
2022-12-31T22:00:59.001Z,5.87
2022-12-31T22:03:27.924Z,6.28
2022-12-31T22:05:59.028Z,6.53
2022-12-31T22:08:27.923Z,5.60
2022-12-31T22:10:56.072Z,5.18
2022-12-31T22:13:24.369Z,5.93
2022-12-31T22:15:57.546Z,7.53
2022-12-31T22:18:30.180Z,7.73
2022-12-31T22:21:02.324Z,6.28
2022-12-31T22:23:30.967Z,6.68
2022-12-31T22:25:58.886Z,5.72
2022-12-31T22:28:37.934Z,6.03
2022-12-31T22:31:08.379Z,5.53
2022-12-31T22:33:36.003Z,5.80
2022-12-31T22:36:06.462Z,5.80
2022-12-31T22:38:34.780Z,5.37
2022-12-31T22:41:10.721Z,5.10
2022-12-31T22:43:41.286Z,4.97
2022-12-31T22:46:19.259Z,4.78
2022-12-31T22:48:47.685Z,5.00
2022-12-31T22:51:16.201Z,6.55
2022-12-31T22:53:44.311Z,8.10
2022-12-31T22:56:14.989Z,5.83
2022-12-31T22:58:42.671Z,5.40
2022-12-31T23:01:21.995Z,5.15
2022-12-31T23:03:51.612Z,4.30
2022-12-31T23:06:20.422Z,10.82
2022-12-31T23:09:07.081Z,8.87
2022-12-31T23:11:36.744Z,6.20
2022-12-31T23:14:24.659Z,4.93
2022-12-31T23:17:30.351Z,4.72
2022-12-31T23:20:20.680Z,4.72
2022-12-31T23:23:07.462Z,5.00
2022-12-31T23:25:37.304Z,4.62
2022-12-31T23:28:06.714Z,5.70
2022-12-31T23:30:34.288Z,6.55
2022-12-31T23:33:01.826Z,6.90
2022-12-31T23:35:29.752Z,9.33
2022-12-31T23:37:57.365Z,9.55
2022-12-31T23:40:34.273Z,8.07
2022-12-31T23:43:06.705Z,6.47
2022-12-31T23:45:34.840Z,7.32
2022-12-31T23:48:02.860Z,6.50
2022-12-31T23:50:30.373Z,7.35
2022-12-31T23:52:57.884Z,7.90
2022-12-31T23:55:25.743Z,7.93
2022-12-31T23:57:53.261Z,6.82
